sensor_id;sensor_type;location;lat;lon;timestamp;P1;durP1;ratioP1;P2;durP2;ratioP2
62844;SDS011;48929;47.910;20.390;2023-04-24T00:01:42;14.05;;;8.05;;
62844;SDS011;48929;47.910;20.390;2023-04-24T00:04:13;11.32;;;8.10;;
62844;SDS011;48929;47.910;20.390;2023-04-24T00:07:09;12.70;;;8.10;;
62844;SDS011;48929;47.910;20.390;2023-04-24T00:10:14;11.00;;;8.27;;
62844;SDS011;48929;47.910;20.390;2023-04-24T00:13:25;11.75;;;7.95;;
62844;SDS011;48929;47.910;20.390;2023-04-24T00:16:18;12.82;;;7.80;;
62844;SDS011;48929;47.910;20.390;2023-04-24T00:19:27;11.80;;;7.22;;
62844;SDS011;48929;47.910;20.390;2023-04-24T00:22:50;11.43;;;7.82;;
62844;SDS011;48929;47.910;20.390;2023-04-24T00:25:52;12.93;;;8.00;;
62844;SDS011;48929;47.910;20.390;2023-04-24T00:28:40;12.43;;;7.50;;
62844;SDS011;48929;47.910;20.390;2023-04-24T00:31:30;11.10;;;7.82;;
62844;SDS011;48929;47.910;20.390;2023-04-24T00:34:16;11.60;;;7.22;;
62844;SDS011;48929;47.910;20.390;2023-04-24T00:37:13;11.90;;;7.63;;
62844;SDS011;48929;47.910;20.390;2023-04-24T00:39:42;13.05;;;7.85;;
62844;SDS011;48929;47.910;20.390;2023-04-24T00:42:18;11.32;;;7.85;;
62844;SDS011;48929;47.910;20.390;2023-04-24T00:44:51;11.37;;;7.60;;
62844;SDS011;48929;47.910;20.390;2023-04-24T00:47:28;14.15;;;7.85;;
62844;SDS011;48929;47.910;20.390;2023-04-24T00:52:27;11.90;;;7.75;;
62844;SDS011;48929;47.910;20.390;2023-04-24T00:55:01;12.80;;;7.82;;
62844;SDS011;48929;47.910;20.390;2023-04-24T00:57:52;12.65;;;7.57;;
62844;SDS011;48929;47.910;20.390;2023-04-24T01:00:37;10.88;;;7.32;;
62844;SDS011;48929;47.910;20.390;2023-04-24T01:03:40;11.85;;;7.78;;
62844;SDS011;48929;47.910;20.390;2023-04-24T01:06:35;12.52;;;8.02;;
62844;SDS011;48929;47.910;20.390;2023-04-24T01:09:25;12.55;;;7.43;;
62844;SDS011;48929;47.910;20.390;2023-04-24T01:12:17;12.02;;;7.65;;
62844;SDS011;48929;47.910;20.390;2023-04-24T01:15:01;11.75;;;7.75;;
62844;SDS011;48929;47.910;20.390;2023-04-24T01:17:47;10.67;;;7.30;;
62844;SDS011;48929;47.910;20.390;2023-04-24T01:23:53;10.95;;;7.70;;
62844;SDS011;48929;47.910;20.390;2023-04-24T01:26:34;12.18;;;7.88;;
62844;SDS011;48929;47.910;20.390;2023-04-24T01:29:18;11.48;;;7.22;;
62844;SDS011;48929;47.910;20.390;2023-04-24T01:31:54;14.45;;;7.68;;
62844;SDS011;48929;47.910;20.390;2023-04-24T01:34:40;11.48;;;7.55;;
62844;SDS011;48929;47.910;20.390;2023-04-24T01:37:18;11.52;;;7.57;;
62844;SDS011;48929;47.910;20.390;2023-04-24T01:40:22;12.60;;;7.63;;
62844;SDS011;48929;47.910;20.390;2023-04-24T01:42:54;12.40;;;7.70;;
62844;SDS011;48929;47.910;20.390;2023-04-24T01:45:51;11.73;;;7.63;;
62844;SDS011;48929;47.910;20.390;2023-04-24T01:48:45;11.13;;;7.47;;
62844;SDS011;48929;47.910;20.390;2023-04-24T01:51:18;12.55;;;7.88;;
62844;SDS011;48929;47.910;20.390;2023-04-24T01:53:49;13.10;;;7.85;;
62844;SDS011;48929;47.910;20.390;2023-04-24T01:56:24;12.40;;;7.53;;
62844;SDS011;48929;47.910;20.390;2023-04-24T01:59:18;11.43;;;7.82;;
62844;SDS011;48929;47.910;20.390;2023-04-24T02:02:05;11.27;;;7.60;;
62844;SDS011;48929;47.910;20.390;2023-04-24T02:04:43;12.57;;;7.55;;
62844;SDS011;48929;47.910;20.390;2023-04-24T02:07:33;13.38;;;8.18;;
62844;SDS011;48929;47.910;20.390;2023-04-24T02:10:18;12.20;;;8.07;;
62844;SDS011;48929;47.910;20.390;2023-04-24T02:13:19;11.10;;;7.53;;
62844;SDS011;48929;47.910;20.390;2023-04-24T02:15:59;10.27;;;7.15;;
62844;SDS011;48929;47.910;20.390;2023-04-24T02:18:33;13.85;;;7.93;;
62844;SDS011;48929;47.910;20.390;2023-04-24T02:21:10;12.90;;;7.82;;
62844;SDS011;48929;47.910;20.390;2023-04-24T02:24:07;11.32;;;8.13;;
62844;SDS011;48929;47.910;20.390;2023-04-24T02:26:45;11.48;;;7.80;;
62844;SDS011;48929;47.910;20.390;2023-04-24T02:29:22;10.77;;;7.70;;
62844;SDS011;48929;47.910;20.390;2023-04-24T02:31:54;12.80;;;7.97;;
62844;SDS011;48929;47.910;20.390;2023-04-24T02:34:34;11.95;;;7.70;;
62844;SDS011;48929;47.910;20.390;2023-04-24T02:37:04;13.52;;;7.78;;
62844;SDS011;48929;47.910;20.390;2023-04-24T02:39:34;12.10;;;8.05;;
62844;SDS011;48929;47.910;20.390;2023-04-24T02:42:02;12.52;;;8.15;;
62844;SDS011;48929;47.910;20.390;2023-04-24T02:44:53;11.27;;;7.40;;
62844;SDS011;48929;47.910;20.390;2023-04-24T02:47:28;12.70;;;7.63;;
62844;SDS011;48929;47.910;20.390;2023-04-24T02:50:01;11.25;;;7.70;;
62844;SDS011;48929;47.910;20.390;2023-04-24T02:52:58;14.40;;;8.38;;
62844;SDS011;48929;47.910;20.390;2023-04-24T02:55:27;11.98;;;7.40;;
62844;SDS011;48929;47.910;20.390;2023-04-24T02:57:56;12.40;;;7.55;;
62844;SDS011;48929;47.910;20.390;2023-04-24T03:00:30;12.25;;;7.85;;
62844;SDS011;48929;47.910;20.390;2023-04-24T03:03:10;13.98;;;7.85;;
62844;SDS011;48929;47.910;20.390;2023-04-24T03:05:47;11.55;;;7.82;;
62844;SDS011;48929;47.910;20.390;2023-04-24T03:08:20;15.45;;;7.78;;
62844;SDS011;48929;47.910;20.390;2023-04-24T03:10:49;10.48;;;7.63;;
62844;SDS011;48929;47.910;20.390;2023-04-24T03:13:25;14.85;;;8.18;;
62844;SDS011;48929;47.910;20.390;2023-04-24T03:16:09;14.13;;;8.10;;
62844;SDS011;48929;47.910;20.390;2023-04-24T03:18:47;12.73;;;7.72;;
62844;SDS011;48929;47.910;20.390;2023-04-24T03:21:23;12.30;;;8.10;;
62844;SDS011;48929;47.910;20.390;2023-04-24T03:24:00;13.25;;;8.27;;
62844;SDS011;48929;47.910;20.390;2023-04-24T03:26:36;14.38;;;8.38;;
62844;SDS011;48929;47.910;20.390;2023-04-24T03:29:09;14.30;;;8.00;;
62844;SDS011;48929;47.910;20.390;2023-04-24T03:31:51;15.38;;;8.93;;
62844;SDS011;48929;47.910;20.390;2023-04-24T03:34:24;14.82;;;7.75;;
62844;SDS011;48929;47.910;20.390;2023-04-24T03:36:53;14.07;;;8.07;;
62844;SDS011;48929;47.910;20.390;2023-04-24T03:39:26;13.50;;;8.60;;
62844;SDS011;48929;47.910;20.390;2023-04-24T03:41:54;13.77;;;8.05;;
62844;SDS011;48929;47.910;20.390;2023-04-24T03:44:37;13.63;;;8.55;;
62844;SDS011;48929;47.910;20.390;2023-04-24T03:47:26;14.80;;;8.38;;
62844;SDS011;48929;47.910;20.390;2023-04-24T03:50:09;16.42;;;8.63;;
62844;SDS011;48929;47.910;20.390;2023-04-24T03:52:40;15.38;;;9.25;;
62844;SDS011;48929;47.910;20.390;2023-04-24T03:55:11;16.20;;;8.23;;
62844;SDS011;48929;47.910;20.390;2023-04-24T03:57:56;13.25;;;9.13;;
62844;SDS011;48929;47.910;20.390;2023-04-24T04:00:28;19.00;;;9.02;;
62844;SDS011;48929;47.910;20.390;2023-04-24T04:03:05;14.20;;;9.00;;
62844;SDS011;48929;47.910;20.390;2023-04-24T04:05:48;15.75;;;9.05;;
62844;SDS011;48929;47.910;20.390;2023-04-24T04:08:48;14.73;;;9.27;;
62844;SDS011;48929;47.910;20.390;2023-04-24T04:11:56;18.05;;;10.68;;
62844;SDS011;48929;47.910;20.390;2023-04-24T04:14:26;19.65;;;12.48;;
62844;SDS011;48929;47.910;20.390;2023-04-24T04:17:09;23.73;;;12.48;;
62844;SDS011;48929;47.910;20.390;2023-04-24T04:20:06;13.48;;;9.45;;
62844;SDS011;48929;47.910;20.390;2023-04-24T04:22:41;13.80;;;9.23;;
62844;SDS011;48929;47.910;20.390;2023-04-24T04:25:43;13.55;;;8.65;;
62844;SDS011;48929;47.910;20.390;2023-04-24T04:28:22;12.23;;;8.73;;
62844;SDS011;48929;47.910;20.390;2023-04-24T04:30:51;13.82;;;9.13;;
62844;SDS011;48929;47.910;20.390;2023-04-24T04:33:48;13.60;;;9.10;;
62844;SDS011;48929;47.910;20.390;2023-04-24T04:40:03;15.38;;;9.07;;
62844;SDS011;48929;47.910;20.390;2023-04-24T04:43:11;13.00;;;8.48;;
62844;SDS011;48929;47.910;20.390;2023-04-24T04:46:05;12.77;;;8.85;;
62844;SDS011;48929;47.910;20.390;2023-04-24T04:49:15;13.38;;;8.73;;
62844;SDS011;48929;47.910;20.390;2023-04-24T04:55:53;15.18;;;9.52;;
62844;SDS011;48929;47.910;20.390;2023-04-24T04:58:25;14.82;;;9.70;;
62844;SDS011;48929;47.910;20.390;2023-04-24T05:01:06;17.58;;;9.88;;
62844;SDS011;48929;47.910;20.390;2023-04-24T05:04:09;17.80;;;10.00;;
62844;SDS011;48929;47.910;20.390;2023-04-24T05:06:51;16.10;;;10.07;;
62844;SDS011;48929;47.910;20.390;2023-04-24T05:09:41;13.57;;;10.30;;
62844;SDS011;48929;47.910;20.390;2023-04-24T05:12:29;17.65;;;11.55;;
62844;SDS011;48929;47.910;20.390;2023-04-24T05:15:06;18.45;;;11.98;;
62844;SDS011;48929;47.910;20.390;2023-04-24T05:17:57;18.90;;;12.53;;
62844;SDS011;48929;47.910;20.390;2023-04-24T05:20:33;16.60;;;10.55;;
62844;SDS011;48929;47.910;20.390;2023-04-24T05:23:27;17.27;;;10.63;;
62844;SDS011;48929;47.910;20.390;2023-04-24T05:26:14;14.68;;;10.52;;
62844;SDS011;48929;47.910;20.390;2023-04-24T05:29:22;13.45;;;8.93;;
62844;SDS011;48929;47.910;20.390;2023-04-24T05:31:55;12.00;;;8.25;;
62844;SDS011;48929;47.910;20.390;2023-04-24T05:34:40;15.07;;;7.22;;
62844;SDS011;48929;47.910;20.390;2023-04-24T05:37:16;12.95;;;7.28;;
62844;SDS011;48929;47.910;20.390;2023-04-24T05:40:09;9.10;;;6.70;;
62844;SDS011;48929;47.910;20.390;2023-04-24T05:42:39;12.80;;;7.65;;
62844;SDS011;48929;47.910;20.390;2023-04-24T05:45:13;11.20;;;7.88;;
62844;SDS011;48929;47.910;20.390;2023-04-24T05:47:43;12.15;;;6.45;;
62844;SDS011;48929;47.910;20.390;2023-04-24T05:50:12;9.15;;;6.80;;
62844;SDS011;48929;47.910;20.390;2023-04-24T05:52:41;10.88;;;7.43;;
62844;SDS011;48929;47.910;20.390;2023-04-24T05:55:10;8.68;;;6.85;;
62844;SDS011;48929;47.910;20.390;2023-04-24T05:57:38;9.52;;;7.05;;
62844;SDS011;48929;47.910;20.390;2023-04-24T06:00:09;9.90;;;7.25;;
62844;SDS011;48929;47.910;20.390;2023-04-24T06:02:40;10.40;;;7.20;;
62844;SDS011;48929;47.910;20.390;2023-04-24T06:05:09;8.98;;;6.88;;
62844;SDS011;48929;47.910;20.390;2023-04-24T06:07:42;11.25;;;7.20;;
62844;SDS011;48929;47.910;20.390;2023-04-24T06:10:59;12.32;;;7.28;;
62844;SDS011;48929;47.910;20.390;2023-04-24T06:13:49;8.75;;;7.30;;
62844;SDS011;48929;47.910;20.390;2023-04-24T06:16:51;12.43;;;7.15;;
62844;SDS011;48929;47.910;20.390;2023-04-24T06:20:32;8.75;;;6.72;;
62844;SDS011;48929;47.910;20.390;2023-04-24T06:23:24;9.65;;;7.28;;
62844;SDS011;48929;47.910;20.390;2023-04-24T06:25:52;10.93;;;7.30;;
62844;SDS011;48929;47.910;20.390;2023-04-24T06:28:21;11.48;;;7.05;;
62844;SDS011;48929;47.910;20.390;2023-04-24T06:30:50;9.82;;;6.90;;
62844;SDS011;48929;47.910;20.390;2023-04-24T06:33:30;9.85;;;6.95;;
62844;SDS011;48929;47.910;20.390;2023-04-24T06:36:00;9.98;;;7.13;;
62844;SDS011;48929;47.910;20.390;2023-04-24T06:38:30;11.45;;;7.47;;
62844;SDS011;48929;47.910;20.390;2023-04-24T06:40:59;10.98;;;6.88;;
62844;SDS011;48929;47.910;20.390;2023-04-24T06:43:28;8.57;;;6.80;;
62844;SDS011;48929;47.910;20.390;2023-04-24T06:45:57;9.88;;;7.38;;
62844;SDS011;48929;47.910;20.390;2023-04-24T06:48:25;9.00;;;6.78;;
62844;SDS011;48929;47.910;20.390;2023-04-24T06:50:54;9.88;;;6.82;;
62844;SDS011;48929;47.910;20.390;2023-04-24T06:53:24;10.52;;;7.18;;
62844;SDS011;48929;47.910;20.390;2023-04-24T06:55:54;10.13;;;7.35;;
62844;SDS011;48929;47.910;20.390;2023-04-24T06:58:22;12.15;;;7.35;;
62844;SDS011;48929;47.910;20.390;2023-04-24T07:00:50;11.45;;;7.78;;
62844;SDS011;48929;47.910;20.390;2023-04-24T07:03:19;10.48;;;7.43;;
62844;SDS011;48929;47.910;20.390;2023-04-24T07:05:47;11.38;;;7.25;;
62844;SDS011;48929;47.910;20.390;2023-04-24T07:08:17;10.30;;;7.88;;
62844;SDS011;48929;47.910;20.390;2023-04-24T07:10:48;9.85;;;7.47;;
62844;SDS011;48929;47.910;20.390;2023-04-24T07:13:18;8.50;;;6.85;;
62844;SDS011;48929;47.910;20.390;2023-04-24T07:15:47;9.10;;;7.35;;
62844;SDS011;48929;47.910;20.390;2023-04-24T07:18:17;9.18;;;7.20;;
62844;SDS011;48929;47.910;20.390;2023-04-24T07:20:55;10.30;;;7.10;;
62844;SDS011;48929;47.910;20.390;2023-04-24T07:24:11;10.32;;;6.63;;
62844;SDS011;48929;47.910;20.390;2023-04-24T07:27:02;9.75;;;7.13;;
62844;SDS011;48929;47.910;20.390;2023-04-24T07:29:42;9.73;;;7.20;;
62844;SDS011;48929;47.910;20.390;2023-04-24T07:32:12;11.10;;;7.63;;
62844;SDS011;48929;47.910;20.390;2023-04-24T07:34:46;10.63;;;7.05;;
62844;SDS011;48929;47.910;20.390;2023-04-24T07:37:18;11.48;;;7.32;;
62844;SDS011;48929;47.910;20.390;2023-04-24T07:39:47;10.02;;;7.60;;
62844;SDS011;48929;47.910;20.390;2023-04-24T07:42:17;9.63;;;7.18;;
62844;SDS011;48929;47.910;20.390;2023-04-24T07:44:46;11.98;;;7.50;;
62844;SDS011;48929;47.910;20.390;2023-04-24T07:47:14;13.52;;;7.70;;
62844;SDS011;48929;47.910;20.390;2023-04-24T07:49:43;12.65;;;7.53;;
62844;SDS011;48929;47.910;20.390;2023-04-24T07:52:11;12.80;;;8.45;;
62844;SDS011;48929;47.910;20.390;2023-04-24T07:54:40;12.07;;;7.70;;
62844;SDS011;48929;47.910;20.390;2023-04-24T07:57:10;10.60;;;7.88;;
62844;SDS011;48929;47.910;20.390;2023-04-24T07:59:40;11.00;;;7.88;;
62844;SDS011;48929;47.910;20.390;2023-04-24T08:02:09;13.32;;;8.73;;
62844;SDS011;48929;47.910;20.390;2023-04-24T08:04:38;11.00;;;7.60;;
62844;SDS011;48929;47.910;20.390;2023-04-24T08:07:08;12.93;;;7.90;;
62844;SDS011;48929;47.910;20.390;2023-04-24T08:09:44;10.27;;;7.85;;
62844;SDS011;48929;47.910;20.390;2023-04-24T08:12:17;11.98;;;8.02;;
62844;SDS011;48929;47.910;20.390;2023-04-24T08:14:51;14.07;;;8.73;;
62844;SDS011;48929;47.910;20.390;2023-04-24T08:17:30;10.57;;;8.07;;
62844;SDS011;48929;47.910;20.390;2023-04-24T08:20:05;10.55;;;8.63;;
62844;SDS011;48929;47.910;20.390;2023-04-24T08:22:48;10.90;;;8.65;;
62844;SDS011;48929;47.910;20.390;2023-04-24T08:25:24;13.05;;;8.02;;
62844;SDS011;48929;47.910;20.390;2023-04-24T08:28:05;11.35;;;8.23;;
62844;SDS011;48929;47.910;20.390;2023-04-24T08:34:04;11.43;;;8.52;;
62844;SDS011;48929;47.910;20.390;2023-04-24T08:36:42;13.93;;;8.70;;
62844;SDS011;48929;47.910;20.390;2023-04-24T08:39:16;11.40;;;8.32;;
62844;SDS011;48929;47.910;20.390;2023-04-24T08:42:01;13.98;;;9.32;;
62844;SDS011;48929;47.910;20.390;2023-04-24T08:44:38;13.65;;;9.48;;
62844;SDS011;48929;47.910;20.390;2023-04-24T08:47:11;12.32;;;9.00;;
62844;SDS011;48929;47.910;20.390;2023-04-24T08:52:39;13.50;;;9.50;;
62844;SDS011;48929;47.910;20.390;2023-04-24T08:55:10;13.00;;;9.18;;
62844;SDS011;48929;47.910;20.390;2023-04-24T08:57:44;13.10;;;9.68;;
62844;SDS011;48929;47.910;20.390;2023-04-24T09:00:16;13.50;;;9.68;;
62844;SDS011;48929;47.910;20.390;2023-04-24T09:02:45;13.68;;;9.98;;
62844;SDS011;48929;47.910;20.390;2023-04-24T09:05:16;15.48;;;9.80;;
62844;SDS011;48929;47.910;20.390;2023-04-24T09:07:47;15.93;;;9.85;;
62844;SDS011;48929;47.910;20.390;2023-04-24T09:10:17;12.95;;;9.68;;
62844;SDS011;48929;47.910;20.390;2023-04-24T09:12:46;13.27;;;9.85;;
62844;SDS011;48929;47.910;20.390;2023-04-24T09:15:14;13.27;;;9.85;;
62844;SDS011;48929;47.910;20.390;2023-04-24T09:17:47;16.33;;;10.23;;
62844;SDS011;48929;47.910;20.390;2023-04-24T09:20:18;13.77;;;9.88;;
62844;SDS011;48929;47.910;20.390;2023-04-24T09:22:48;16.27;;;9.93;;
62844;SDS011;48929;47.910;20.390;2023-04-24T09:25:21;13.65;;;10.00;;
62844;SDS011;48929;47.910;20.390;2023-04-24T09:27:53;14.50;;;10.40;;
62844;SDS011;48929;47.910;20.390;2023-04-24T09:30:22;12.60;;;9.80;;
62844;SDS011;48929;47.910;20.390;2023-04-24T09:32:52;14.77;;;10.32;;
62844;SDS011;48929;47.910;20.390;2023-04-24T09:35:40;13.45;;;9.00;;
62844;SDS011;48929;47.910;20.390;2023-04-24T09:38:13;13.68;;;9.38;;
62844;SDS011;48929;47.910;20.390;2023-04-24T09:40:59;13.02;;;10.10;;
62844;SDS011;48929;47.910;20.390;2023-04-24T09:43:33;12.90;;;9.93;;
62844;SDS011;48929;47.910;20.390;2023-04-24T09:46:28;14.13;;;9.68;;
62844;SDS011;48929;47.910;20.390;2023-04-24T09:49:07;14.00;;;9.35;;
62844;SDS011;48929;47.910;20.390;2023-04-24T09:51:43;16.92;;;10.15;;
62844;SDS011;48929;47.910;20.390;2023-04-24T09:54:25;12.80;;;9.73;;
62844;SDS011;48929;47.910;20.390;2023-04-24T09:57:09;13.55;;;10.20;;
62844;SDS011;48929;47.910;20.390;2023-04-24T09:59:41;13.60;;;9.50;;
62844;SDS011;48929;47.910;20.390;2023-04-24T11:16:24;15.98;;;10.52;;
62844;SDS011;48929;47.910;20.390;2023-04-24T11:19:00;17.70;;;12.00;;
62844;SDS011;48929;47.910;20.390;2023-04-24T11:21:38;18.95;;;11.52;;
62844;SDS011;48929;47.910;20.390;2023-04-24T11:24:23;17.33;;;12.50;;
62844;SDS011;48929;47.910;20.390;2023-04-24T11:26:52;18.83;;;12.40;;
62844;SDS011;48929;47.910;20.390;2023-04-24T11:29:23;19.08;;;13.50;;
62844;SDS011;48929;47.910;20.390;2023-04-24T11:35:00;15.40;;;11.80;;
62844;SDS011;48929;47.910;20.390;2023-04-24T11:37:33;17.35;;;11.95;;
62844;SDS011;48929;47.910;20.390;2023-04-24T11:40:02;17.73;;;13.27;;
62844;SDS011;48929;47.910;20.390;2023-04-24T11:42:33;18.42;;;13.15;;
62844;SDS011;48929;47.910;20.390;2023-04-24T11:45:02;19.45;;;12.65;;
62844;SDS011;48929;47.910;20.390;2023-04-24T11:47:35;17.35;;;12.85;;
62844;SDS011;48929;47.910;20.390;2023-04-24T11:50:07;19.00;;;13.52;;
62844;SDS011;48929;47.910;20.390;2023-04-24T11:52:39;19.58;;;13.35;;
62844;SDS011;48929;47.910;20.390;2023-04-24T11:55:22;21.63;;;14.13;;
62844;SDS011;48929;47.910;20.390;2023-04-24T11:57:53;21.08;;;14.63;;
62844;SDS011;48929;47.910;20.390;2023-04-24T12:00:23;23.00;;;15.32;;
62844;SDS011;48929;47.910;20.390;2023-04-24T12:02:53;23.33;;;15.45;;
62844;SDS011;48929;47.910;20.390;2023-04-24T12:05:32;21.20;;;14.27;;
62844;SDS011;48929;47.910;20.390;2023-04-24T12:08:02;19.13;;;13.93;;
62844;SDS011;48929;47.910;20.390;2023-04-24T12:10:32;21.75;;;14.75;;
62844;SDS011;48929;47.910;20.390;2023-04-24T12:13:01;21.95;;;14.38;;
62844;SDS011;48929;47.910;20.390;2023-04-24T12:15:30;20.85;;;14.13;;
62844;SDS011;48929;47.910;20.390;2023-04-24T12:17:59;22.02;;;15.10;;
62844;SDS011;48929;47.910;20.390;2023-04-24T12:20:31;24.10;;;16.27;;
62844;SDS011;48929;47.910;20.390;2023-04-24T12:23:01;20.13;;;14.35;;
62844;SDS011;48929;47.910;20.390;2023-04-24T12:25:31;20.95;;;14.95;;
62844;SDS011;48929;47.910;20.390;2023-04-24T12:28:10;21.92;;;14.93;;
62844;SDS011;48929;47.910;20.390;2023-04-24T12:30:41;21.98;;;15.43;;
62844;SDS011;48929;47.910;20.390;2023-04-24T12:33:11;24.17;;;15.05;;
62844;SDS011;48929;47.910;20.390;2023-04-24T12:35:40;22.00;;;16.20;;
62844;SDS011;48929;47.910;20.390;2023-04-24T12:38:11;19.88;;;12.93;;
62844;SDS011;48929;47.910;20.390;2023-04-24T12:40:40;26.05;;;16.63;;
62844;SDS011;48929;47.910;20.390;2023-04-24T12:43:13;24.05;;;16.25;;
62844;SDS011;48929;47.910;20.390;2023-04-24T12:45:42;19.77;;;13.70;;
62844;SDS011;48929;47.910;20.390;2023-04-24T12:48:12;21.40;;;14.70;;
62844;SDS011;48929;47.910;20.390;2023-04-24T12:50:41;23.50;;;16.80;;
62844;SDS011;48929;47.910;20.390;2023-04-24T12:53:14;22.67;;;15.38;;
62844;SDS011;48929;47.910;20.390;2023-04-24T12:55:43;25.17;;;16.55;;
62844;SDS011;48929;47.910;20.390;2023-04-24T12:58:12;28.45;;;16.95;;
62844;SDS011;48929;47.910;20.390;2023-04-24T13:00:40;23.35;;;17.27;;
62844;SDS011;48929;47.910;20.390;2023-04-24T13:03:10;25.40;;;17.73;;
62844;SDS011;48929;47.910;20.390;2023-04-24T13:05:41;22.45;;;16.45;;
62844;SDS011;48929;47.910;20.390;2023-04-24T13:08:10;26.20;;;18.20;;
62844;SDS011;48929;47.910;20.390;2023-04-24T13:10:46;25.00;;;18.08;;
62844;SDS011;48929;47.910;20.390;2023-04-24T13:13:20;25.75;;;17.55;;
62844;SDS011;48929;47.910;20.390;2023-04-24T13:15:55;23.05;;;16.73;;
62844;SDS011;48929;47.910;20.390;2023-04-24T13:18:29;24.42;;;17.70;;
62844;SDS011;48929;47.910;20.390;2023-04-24T13:20:58;25.70;;;18.10;;
62844;SDS011;48929;47.910;20.390;2023-04-24T13:23:31;23.15;;;18.00;;
62844;SDS011;48929;47.910;20.390;2023-04-24T13:26:11;24.90;;;17.70;;
62844;SDS011;48929;47.910;20.390;2023-04-24T13:28:47;26.73;;;18.00;;
62844;SDS011;48929;47.910;20.390;2023-04-24T13:31:19;25.48;;;18.02;;
62844;SDS011;48929;47.910;20.390;2023-04-24T13:33:50;25.30;;;18.25;;
62844;SDS011;48929;47.910;20.390;2023-04-24T13:36:19;24.65;;;17.30;;
62844;SDS011;48929;47.910;20.390;2023-04-24T13:38:49;23.60;;;17.77;;
62844;SDS011;48929;47.910;20.390;2023-04-24T13:41:28;26.38;;;18.30;;
62844;SDS011;48929;47.910;20.390;2023-04-24T13:44:18;26.08;;;18.77;;
62844;SDS011;48929;47.910;20.390;2023-04-24T13:47:07;24.52;;;17.92;;
62844;SDS011;48929;47.910;20.390;2023-04-24T13:49:56;23.92;;;17.05;;
62844;SDS011;48929;47.910;20.390;2023-04-24T13:52:37;23.40;;;17.40;;
62844;SDS011;48929;47.910;20.390;2023-04-24T14:01:55;23.48;;;17.30;;
62844;SDS011;48929;47.910;20.390;2023-04-24T14:07:06;22.42;;;16.80;;
62844;SDS011;48929;47.910;20.390;2023-04-24T14:09:56;24.38;;;16.73;;
62844;SDS011;48929;47.910;20.390;2023-04-24T14:12:31;26.25;;;17.85;;
62844;SDS011;48929;47.910;20.390;2023-04-24T14:15:21;26.10;;;16.98;;
62844;SDS011;48929;47.910;20.390;2023-04-24T14:17:56;24.52;;;16.38;;
62844;SDS011;48929;47.910;20.390;2023-04-24T14:21:30;22.13;;;15.90;;
62844;SDS011;48929;47.910;20.390;2023-04-24T14:45:47;23.95;;;16.58;;
62844;SDS011;48929;47.910;20.390;2023-04-24T14:48:33;23.55;;;16.42;;
62844;SDS011;48929;47.910;20.390;2023-04-24T14:51:16;23.75;;;17.05;;
62844;SDS011;48929;47.910;20.390;2023-04-24T14:53:59;28.48;;;16.83;;
62844;SDS011;48929;47.910;20.390;2023-04-24T14:56:31;26.83;;;17.42;;
62844;SDS011;48929;47.910;20.390;2023-04-24T14:59:04;28.25;;;18.30;;
62844;SDS011;48929;47.910;20.390;2023-04-24T15:01:35;29.15;;;18.25;;
62844;SDS011;48929;47.910;20.390;2023-04-24T15:08:01;26.83;;;17.33;;
62844;SDS011;48929;47.910;20.390;2023-04-24T15:18:11;25.80;;;17.67;;
62844;SDS011;48929;47.910;20.390;2023-04-24T15:21:32;25.67;;;17.38;;
62844;SDS011;48929;47.910;20.390;2023-04-24T15:24:39;28.10;;;19.88;;
62844;SDS011;48929;47.910;20.390;2023-04-24T15:28:09;28.25;;;18.70;;
62844;SDS011;48929;47.910;20.390;2023-04-24T15:34:32;29.55;;;20.15;;
62844;SDS011;48929;47.910;20.390;2023-04-24T15:37:56;28.83;;;18.90;;
62844;SDS011;48929;47.910;20.390;2023-04-24T15:41:25;30.35;;;19.80;;
62844;SDS011;48929;47.910;20.390;2023-04-24T15:44:57;28.25;;;18.33;;
62844;SDS011;48929;47.910;20.390;2023-04-24T15:51:37;27.67;;;19.13;;
62844;SDS011;48929;47.910;20.390;2023-04-24T15:54:49;30.55;;;19.60;;
62844;SDS011;48929;47.910;20.390;2023-04-24T15:57:58;31.35;;;20.33;;
62844;SDS011;48929;47.910;20.390;2023-04-24T16:03:26;31.27;;;19.95;;
62844;SDS011;48929;47.910;20.390;2023-04-24T16:04:39;26.50;;;18.10;;
62844;SDS011;48929;47.910;20.390;2023-04-24T16:07:12;27.98;;;18.58;;
62844;SDS011;48929;47.910;20.390;2023-04-24T16:10:03;24.98;;;16.50;;
62844;SDS011;48929;47.910;20.390;2023-04-24T16:12:41;24.40;;;16.55;;
62844;SDS011;48929;47.910;20.390;2023-04-24T16:15:11;22.20;;;15.07;;
62844;SDS011;48929;47.910;20.390;2023-04-24T16:17:48;24.48;;;16.45;;
62844;SDS011;48929;47.910;20.390;2023-04-24T16:20:25;19.77;;;13.98;;
62844;SDS011;48929;47.910;20.390;2023-04-24T16:26:55;12.70;;;7.63;;
62844;SDS011;48929;47.910;20.390;2023-04-24T16:29:32;10.70;;;7.28;;
62844;SDS011;48929;47.910;20.390;2023-04-24T16:32:23;17.70;;;7.45;;
62844;SDS011;48929;47.910;20.390;2023-04-24T16:34:57;11.70;;;6.63;;
62844;SDS011;48929;47.910;20.390;2023-04-24T16:37:35;9.60;;;6.47;;
62844;SDS011;48929;47.910;20.390;2023-04-24T16:40:08;8.07;;;5.80;;
62844;SDS011;48929;47.910;20.390;2023-04-24T16:42:43;8.52;;;6.10;;
62844;SDS011;48929;47.910;20.390;2023-04-24T16:45:31;10.03;;;7.00;;
62844;SDS011;48929;47.910;20.390;2023-04-24T16:48:06;8.27;;;5.50;;
62844;SDS011;48929;47.910;20.390;2023-04-24T16:50:41;8.25;;;5.97;;
62844;SDS011;48929;47.910;20.390;2023-04-24T16:53:18;9.13;;;5.70;;
62844;SDS011;48929;47.910;20.390;2023-04-24T16:56:00;9.85;;;6.05;;
62844;SDS011;48929;47.910;20.390;2023-04-24T16:58:47;10.27;;;5.93;;
62844;SDS011;48929;47.910;20.390;2023-04-24T17:03:56;6.97;;;5.28;;
62844;SDS011;48929;47.910;20.390;2023-04-24T17:06:31;9.52;;;6.03;;
62844;SDS011;48929;47.910;20.390;2023-04-24T17:09:06;10.32;;;6.43;;
62844;SDS011;48929;47.910;20.390;2023-04-24T17:11:45;9.43;;;6.50;;
62844;SDS011;48929;47.910;20.390;2023-04-24T17:14:20;11.27;;;6.47;;
62844;SDS011;48929;47.910;20.390;2023-04-24T17:16:56;10.75;;;6.63;;
62844;SDS011;48929;47.910;20.390;2023-04-24T17:19:28;10.38;;;7.10;;
62844;SDS011;48929;47.910;20.390;2023-04-24T17:22:01;11.43;;;6.72;;
62844;SDS011;48929;47.910;20.390;2023-04-24T17:24:37;11.55;;;6.85;;
62844;SDS011;48929;47.910;20.390;2023-04-24T17:27:11;9.95;;;6.97;;
62844;SDS011;48929;47.910;20.390;2023-04-24T17:29:49;10.60;;;7.35;;
62844;SDS011;48929;47.910;20.390;2023-04-24T17:32:19;10.15;;;7.25;;
62844;SDS011;48929;47.910;20.390;2023-04-24T17:34:50;12.07;;;7.18;;
62844;SDS011;48929;47.910;20.390;2023-04-24T17:37:19;12.65;;;7.30;;
62844;SDS011;48929;47.910;20.390;2023-04-24T17:39:49;11.02;;;7.05;;
62844;SDS011;48929;47.910;20.390;2023-04-24T17:42:19;11.40;;;7.30;;
62844;SDS011;48929;47.910;20.390;2023-04-24T17:44:54;10.90;;;7.43;;
62844;SDS011;48929;47.910;20.390;2023-04-24T17:47:26;11.98;;;7.90;;
62844;SDS011;48929;47.910;20.390;2023-04-24T17:49:57;11.13;;;7.70;;
62844;SDS011;48929;47.910;20.390;2023-04-24T17:52:27;11.60;;;7.72;;
62844;SDS011;48929;47.910;20.390;2023-04-24T17:54:56;13.35;;;7.50;;
62844;SDS011;48929;47.910;20.390;2023-04-24T17:57:49;11.65;;;8.07;;
62844;SDS011;48929;47.910;20.390;2023-04-24T18:03:37;13.40;;;8.18;;
62844;SDS011;48929;47.910;20.390;2023-04-24T18:06:16;19.80;;;8.88;;